sensor_id;sensor_type;location;lat;lon;timestamp;pressure;altitude;pressure_sealevel;temperature;humidity
42633;BME280;28261;53.304;-6.284;2023-07-09T00:00:37;100982.13;;;16.47;50.33
42633;BME280;28261;53.304;-6.284;2023-07-09T00:02:43;100978.44;;;16.48;50.78
42633;BME280;28261;53.304;-6.284;2023-07-09T00:04:47;100993.94;;;16.45;50.68
42633;BME280;28261;53.304;-6.284;2023-07-09T00:06:51;100994.63;;;16.47;50.65
42633;BME280;28261;53.304;-6.284;2023-07-09T00:08:55;101002.50;;;16.48;50.91
42633;BME280;28261;53.304;-6.284;2023-07-09T00:10:59;100997.88;;;16.50;50.87
42633;BME280;28261;53.304;-6.284;2023-07-09T00:13:02;100995.06;;;16.52;50.96
42633;BME280;28261;53.304;-6.284;2023-07-09T00:15:07;100996.63;;;16.54;51.38
42633;BME280;28261;53.304;-6.284;2023-07-09T00:17:18;100999.03;;;16.57;51.06
42633;BME280;28261;53.304;-6.284;2023-07-09T00:19:26;101005.13;;;16.60;51.43
42633;BME280;28261;53.304;-6.284;2023-07-09T00:21:31;101011.16;;;16.62;51.35
42633;BME280;28261;53.304;-6.284;2023-07-09T00:23:36;101007.66;;;16.61;51.80
42633;BME280;28261;53.304;-6.284;2023-07-09T00:25:40;101004.09;;;16.61;51.85
42633;BME280;28261;53.304;-6.284;2023-07-09T00:27:46;100995.97;;;16.62;51.97
42633;BME280;28261;53.304;-6.284;2023-07-09T00:29:52;100994.97;;;16.63;51.79
42633;BME280;28261;53.304;-6.284;2023-07-09T00:31:55;101003.00;;;16.63;52.14
42633;BME280;28261;53.304;-6.284;2023-07-09T00:33:59;100992.44;;;16.62;52.62
42633;BME280;28261;53.304;-6.284;2023-07-09T00:36:13;100988.34;;;16.57;52.66
42633;BME280;28261;53.304;-6.284;2023-07-09T00:38:19;100992.53;;;16.50;53.04
42633;BME280;28261;53.304;-6.284;2023-07-09T00:40:24;101000.91;;;16.36;53.46
42633;BME280;28261;53.304;-6.284;2023-07-09T00:42:28;100993.56;;;16.28;53.38
42633;BME280;28261;53.304;-6.284;2023-07-09T00:44:32;100996.91;;;16.20;53.51
42633;BME280;28261;53.304;-6.284;2023-07-09T00:49:31;101006.63;;;16.00;54.62
42633;BME280;28261;53.304;-6.284;2023-07-09T00:51:38;101009.44;;;15.99;54.75
42633;BME280;28261;53.304;-6.284;2023-07-09T00:53:45;101008.63;;;15.98;54.96
42633;BME280;28261;53.304;-6.284;2023-07-09T00:55:53;101005.63;;;15.92;55.20
42633;BME280;28261;53.304;-6.284;2023-07-09T00:58:02;101001.78;;;15.84;55.34
42633;BME280;28261;53.304;-6.284;2023-07-09T01:00:11;100993.03;;;15.82;55.44
42633;BME280;28261;53.304;-6.284;2023-07-09T01:02:17;100990.09;;;15.85;55.69
42633;BME280;28261;53.304;-6.284;2023-07-09T01:04:25;100998.97;;;15.86;56.05
42633;BME280;28261;53.304;-6.284;2023-07-09T01:06:32;100993.91;;;15.83;56.84
42633;BME280;28261;53.304;-6.284;2023-07-09T01:08:40;101000.06;;;15.83;56.88
42633;BME280;28261;53.304;-6.284;2023-07-09T01:10:44;101002.25;;;15.78;58.18
42633;BME280;28261;53.304;-6.284;2023-07-09T01:12:48;100999.25;;;15.71;58.33
42633;BME280;28261;53.304;-6.284;2023-07-09T01:14:54;101006.69;;;15.68;58.97
42633;BME280;28261;53.304;-6.284;2023-07-09T01:17:03;101000.47;;;15.67;59.68
42633;BME280;28261;53.304;-6.284;2023-07-09T01:19:09;100993.75;;;15.73;59.43
42633;BME280;28261;53.304;-6.284;2023-07-09T01:21:17;100998.59;;;15.79;60.08
42633;BME280;28261;53.304;-6.284;2023-07-09T01:23:21;101001.91;;;15.83;60.66
42633;BME280;28261;53.304;-6.284;2023-07-09T01:25:24;100997.25;;;15.85;60.65
42633;BME280;28261;53.304;-6.284;2023-07-09T01:27:30;101007.81;;;15.86;61.02
42633;BME280;28261;53.304;-6.284;2023-07-09T01:29:36;101006.13;;;15.85;61.00
42633;BME280;28261;53.304;-6.284;2023-07-09T01:31:40;101008.09;;;15.83;61.00
42633;BME280;28261;53.304;-6.284;2023-07-09T01:33:44;100996.66;;;15.81;61.49
42633;BME280;28261;53.304;-6.284;2023-07-09T01:35:48;100994.38;;;15.77;61.51
42633;BME280;28261;53.304;-6.284;2023-07-09T01:37:53;100999.25;;;15.71;61.44
42633;BME280;28261;53.304;-6.284;2023-07-09T01:39:57;101002.19;;;15.68;61.70
42633;BME280;28261;53.304;-6.284;2023-07-09T01:42:01;101000.63;;;15.66;62.09
42633;BME280;28261;53.304;-6.284;2023-07-09T01:44:05;100999.31;;;15.60;63.02
42633;BME280;28261;53.304;-6.284;2023-07-09T01:46:10;100997.75;;;15.57;63.11
42633;BME280;28261;53.304;-6.284;2023-07-09T01:48:14;100999.81;;;15.54;63.27
42633;BME280;28261;53.304;-6.284;2023-07-09T01:50:18;101000.94;;;15.51;63.79
42633;BME280;28261;53.304;-6.284;2023-07-09T01:52:22;101002.16;;;15.47;64.30
42633;BME280;28261;53.304;-6.284;2023-07-09T01:54:28;100995.38;;;15.43;64.13
42633;BME280;28261;53.304;-6.284;2023-07-09T01:56:32;100996.59;;;15.39;64.59
42633;BME280;28261;53.304;-6.284;2023-07-09T01:58:36;100989.09;;;15.33;65.52
42633;BME280;28261;53.304;-6.284;2023-07-09T02:00:46;100992.53;;;15.23;65.56
42633;BME280;28261;53.304;-6.284;2023-07-09T02:02:50;100990.97;;;15.21;65.85
42633;BME280;28261;53.304;-6.284;2023-07-09T02:04:55;100994.03;;;15.16;66.49
42633;BME280;28261;53.304;-6.284;2023-07-09T02:06:59;100991.34;;;15.16;66.47
42633;BME280;28261;53.304;-6.284;2023-07-09T02:09:02;100991.34;;;15.16;66.22
42633;BME280;28261;53.304;-6.284;2023-07-09T02:11:08;100991.47;;;15.15;66.64
42633;BME280;28261;53.304;-6.284;2023-07-09T02:13:11;100991.00;;;15.10;66.90
42633;BME280;28261;53.304;-6.284;2023-07-09T02:15:15;100993.06;;;15.06;67.29
42633;BME280;28261;53.304;-6.284;2023-07-09T02:17:19;100994.06;;;15.05;67.29
42633;BME280;28261;53.304;-6.284;2023-07-09T02:19:22;100992.38;;;15.04;67.48
42633;BME280;28261;53.304;-6.284;2023-07-09T02:21:26;100988.97;;;15.02;67.38
42633;BME280;28261;53.304;-6.284;2023-07-09T02:23:31;100983.88;;;14.99;67.02
42633;BME280;28261;53.304;-6.284;2023-07-09T02:25:35;100986.06;;;14.94;67.41
42633;BME280;28261;53.304;-6.284;2023-07-09T02:27:40;100988.88;;;14.92;67.95
42633;BME280;28261;53.304;-6.284;2023-07-09T02:29:44;100994.31;;;14.91;68.40
42633;BME280;28261;53.304;-6.284;2023-07-09T02:31:48;101000.41;;;14.93;68.15
42633;BME280;28261;53.304;-6.284;2023-07-09T02:33:51;100995.78;;;14.95;67.86
42633;BME280;28261;53.304;-6.284;2023-07-09T02:35:54;100995.78;;;14.95;67.61
42633;BME280;28261;53.304;-6.284;2023-07-09T02:37:58;100991.19;;;14.97;67.63
42633;BME280;28261;53.304;-6.284;2023-07-09T02:40:02;100989.47;;;14.96;67.80
42633;BME280;28261;53.304;-6.284;2023-07-09T02:42:08;100991.19;;;14.97;68.04
42633;BME280;28261;53.304;-6.284;2023-07-09T02:44:13;100982.44;;;14.95;68.03
42633;BME280;28261;53.304;-6.284;2023-07-09T02:46:17;100985.94;;;14.95;68.10
42633;BME280;28261;53.304;-6.284;2023-07-09T02:48:20;100986.94;;;14.94;68.71
42633;BME280;28261;53.304;-6.284;2023-07-09T02:50:24;100981.59;;;14.94;68.58
42633;BME280;28261;53.304;-6.284;2023-07-09T02:52:27;100987.75;;;14.95;68.98
42633;BME280;28261;53.304;-6.284;2023-07-09T02:54:31;100991.41;;;14.94;68.57
42633;BME280;28261;53.304;-6.284;2023-07-09T02:56:34;100991.41;;;14.94;68.54
42633;BME280;28261;53.304;-6.284;2023-07-09T02:58:37;100995.91;;;14.93;69.64
42633;BME280;28261;53.304;-6.284;2023-07-09T03:00:41;100989.81;;;14.91;69.28
42633;BME280;28261;53.304;-6.284;2023-07-09T03:02:44;100996.03;;;14.92;71.16
42633;BME280;28261;53.304;-6.284;2023-07-09T03:04:48;100984.75;;;14.88;70.16
42633;BME280;28261;53.304;-6.284;2023-07-09T03:06:51;100980.63;;;14.84;69.48
42633;BME280;28261;53.304;-6.284;2023-07-09T03:08:54;100984.53;;;14.80;70.09
42633;BME280;28261;53.304;-6.284;2023-07-09T03:10:57;100987.31;;;14.78;70.23
42633;BME280;28261;53.304;-6.284;2023-07-09T03:13:01;100983.69;;;14.79;71.09
42633;BME280;28261;53.304;-6.284;2023-07-09T03:15:04;100975.56;;;14.81;70.59
42633;BME280;28261;53.304;-6.284;2023-07-09T03:17:09;100980.28;;;14.77;73.84
42633;BME280;28261;53.304;-6.284;2023-07-09T03:19:12;100970.47;;;14.78;73.34
42633;BME280;28261;53.304;-6.284;2023-07-09T03:21:15;100972.75;;;14.82;73.38
42633;BME280;28261;53.304;-6.284;2023-07-09T03:23:19;100972.13;;;14.90;73.52
42633;BME280;28261;53.304;-6.284;2023-07-09T03:25:21;100960.09;;;14.96;73.42
42633;BME280;28261;53.304;-6.284;2023-07-09T03:27:24;100957.91;;;15.01;74.51
42633;BME280;28261;53.304;-6.284;2023-07-09T03:29:28;100954.38;;;15.00;74.46
42633;BME280;28261;53.304;-6.284;2023-07-09T03:31:31;100955.94;;;15.03;74.30
42633;BME280;28261;53.304;-6.284;2023-07-09T03:33:38;100957.41;;;15.07;74.36
42633;BME280;28261;53.304;-6.284;2023-07-09T03:35:41;100960.59;;;15.01;76.57
42633;BME280;28261;53.304;-6.284;2023-07-09T03:37:45;100965.91;;;15.01;75.33
42633;BME280;28261;53.304;-6.284;2023-07-09T03:39:48;100970.25;;;15.02;75.29
42633;BME280;28261;53.304;-6.284;2023-07-09T03:41:51;100974.78;;;15.01;76.10
42633;BME280;28261;53.304;-6.284;2023-07-09T03:43:55;100976.84;;;14.98;76.24
42633;BME280;28261;53.304;-6.284;2023-07-09T03:45:58;100974.19;;;14.86;77.41
42633;BME280;28261;53.304;-6.284;2023-07-09T03:48:03;100973.84;;;14.80;77.06
42633;BME280;28261;53.304;-6.284;2023-07-09T03:50:09;100955.78;;;14.72;77.55
42633;BME280;28261;53.304;-6.284;2023-07-09T03:52:13;100956.28;;;14.66;78.39
42633;BME280;28261;53.304;-6.284;2023-07-09T03:54:16;100955.28;;;14.55;79.17
42633;BME280;28261;53.304;-6.284;2023-07-09T03:56:20;100950.72;;;14.46;80.25
42633;BME280;28261;53.304;-6.284;2023-07-09T03:58:24;100954.69;;;14.41;80.03
42633;BME280;28261;53.304;-6.284;2023-07-09T04:00:27;100968.16;;;14.39;80.86
42633;BME280;28261;53.304;-6.284;2023-07-09T04:02:31;100957.72;;;14.36;81.37
42633;BME280;28261;53.304;-6.284;2023-07-09T04:04:34;100961.50;;;14.33;80.95
42633;BME280;28261;53.304;-6.284;2023-07-09T04:06:39;100959.69;;;14.34;81.25
42633;BME280;28261;53.304;-6.284;2023-07-09T04:08:43;100968.03;;;14.41;81.51
42633;BME280;28261;53.304;-6.284;2023-07-09T04:10:46;100973.59;;;14.49;80.97
42633;BME280;28261;53.304;-6.284;2023-07-09T04:12:49;100966.09;;;14.54;80.59
42633;BME280;28261;53.304;-6.284;2023-07-09T04:14:53;100971.06;;;14.59;80.64
42633;BME280;28261;53.304;-6.284;2023-07-09T04:16:55;100969.75;;;14.64;80.48
42633;BME280;28261;53.304;-6.284;2023-07-09T04:18:59;100968.53;;;14.68;80.32
42633;BME280;28261;53.304;-6.284;2023-07-09T04:21:02;100981.63;;;14.71;80.01
42633;BME280;28261;53.304;-6.284;2023-07-09T04:23:08;100969.25;;;14.70;80.17
42633;BME280;28261;53.304;-6.284;2023-07-09T04:25:12;100977.75;;;14.64;80.12
42633;BME280;28261;53.304;-6.284;2023-07-09T04:27:15;100978.34;;;14.56;81.31
42633;BME280;28261;53.304;-6.284;2023-07-09T04:29:19;100980.66;;;14.61;81.48
42633;BME280;28261;53.304;-6.284;2023-07-09T04:31:22;100972.16;;;14.67;81.14
42633;BME280;28261;53.304;-6.284;2023-07-09T04:33:25;100974.44;;;14.72;81.84
42633;BME280;28261;53.304;-6.284;2023-07-09T04:35:29;100963.78;;;14.72;81.32
42633;BME280;28261;53.304;-6.284;2023-07-09T04:37:32;100970.59;;;14.65;81.62
42633;BME280;28261;53.304;-6.284;2023-07-09T04:39:37;100962.84;;;14.50;82.44
42633;BME280;28261;53.304;-6.284;2023-07-09T04:41:41;100966.94;;;14.43;83.17
42633;BME280;28261;53.304;-6.284;2023-07-09T04:43:44;100969.13;;;14.49;83.45
42633;BME280;28261;53.304;-6.284;2023-07-09T04:45:48;100965.38;;;14.63;84.27
42633;BME280;28261;53.304;-6.284;2023-07-09T04:47:52;100973.50;;;14.73;82.58
42633;BME280;28261;53.304;-6.284;2023-07-09T04:49:56;100970.56;;;14.76;82.19
42633;BME280;28261;53.304;-6.284;2023-07-09T04:51:59;100966.22;;;14.75;83.30
42633;BME280;28261;53.304;-6.284;2023-07-09T04:54:03;100960.00;;;14.75;82.78
42633;BME280;28261;53.304;-6.284;2023-07-09T04:56:08;100961.84;;;14.74;83.01
42633;BME280;28261;53.304;-6.284;2023-07-09T04:58:11;100965.47;;;14.84;83.34
42633;BME280;28261;53.304;-6.284;2023-07-09T05:00:15;100953.28;;;15.03;82.93
42633;BME280;28261;53.304;-6.284;2023-07-09T05:02:19;100945.81;;;15.18;81.72
42633;BME280;28261;53.304;-6.284;2023-07-09T05:04:22;100952.63;;;15.43;81.37
42633;BME280;28261;53.304;-6.284;2023-07-09T05:06:26;100948.31;;;15.84;79.98
42633;BME280;28261;53.304;-6.284;2023-07-09T05:08:29;100946.44;;;16.37;78.37
42633;BME280;28261;53.304;-6.284;2023-07-09T05:10:32;100944.75;;;16.96;76.25
42633;BME280;28261;53.304;-6.284;2023-07-09T05:12:47;100943.91;;;17.54;74.03
42633;BME280;28261;53.304;-6.284;2023-07-09T05:14:50;100942.09;;;18.12;71.82
42633;BME280;28261;53.304;-6.284;2023-07-09T05:16:54;100947.66;;;18.66;69.79
42633;BME280;28261;53.304;-6.284;2023-07-09T05:18:57;100942.72;;;19.07;68.22
42633;BME280;28261;53.304;-6.284;2023-07-09T05:21:00;100935.47;;;19.62;66.37
42633;BME280;28261;53.304;-6.284;2023-07-09T05:23:04;100933.09;;;20.11;64.65
42633;BME280;28261;53.304;-6.284;2023-07-09T05:25:08;100933.00;;;20.29;63.74
42633;BME280;28261;53.304;-6.284;2023-07-09T05:27:11;100926.78;;;20.29;63.00
42633;BME280;28261;53.304;-6.284;2023-07-09T05:29:16;100920.50;;;20.63;61.60
42633;BME280;28261;53.304;-6.284;2023-07-09T05:31:19;100918.09;;;21.03;59.56
42633;BME280;28261;53.304;-6.284;2023-07-09T05:33:24;100924.00;;;21.39;58.18
42633;BME280;28261;53.304;-6.284;2023-07-09T05:35:27;100919.13;;;21.59;57.28
42633;BME280;28261;53.304;-6.284;2023-07-09T05:37:30;100918.09;;;21.52;57.38
42633;BME280;28261;53.304;-6.284;2023-07-09T05:39:34;100913.03;;;21.49;57.57
42633;BME280;28261;53.304;-6.284;2023-07-09T05:41:37;100912.34;;;21.72;57.17
42633;BME280;28261;53.304;-6.284;2023-07-09T05:43:41;100913.59;;;22.09;55.87
42633;BME280;28261;53.304;-6.284;2023-07-09T05:45:44;100919.25;;;22.70;54.26
42633;BME280;28261;53.304;-6.284;2023-07-09T05:47:48;100922.25;;;23.30;52.72
42633;BME280;28261;53.304;-6.284;2023-07-09T05:49:51;100914.56;;;23.57;51.47
42633;BME280;28261;53.304;-6.284;2023-07-09T05:51:55;100912.06;;;23.09;52.56
42633;BME280;28261;53.304;-6.284;2023-07-09T05:53:58;100923.88;;;22.61;53.72
42633;BME280;28261;53.304;-6.284;2023-07-09T05:56:02;100921.25;;;21.97;54.84
42633;BME280;28261;53.304;-6.284;2023-07-09T05:58:05;100920.78;;;21.52;56.34
42633;BME280;28261;53.304;-6.284;2023-07-09T06:00:10;100920.78;;;21.27;57.13
42633;BME280;28261;53.304;-6.284;2023-07-09T06:02:18;100914.41;;;21.28;56.96
42633;BME280;28261;53.304;-6.284;2023-07-09T06:04:21;100908.31;;;21.18;56.97
42633;BME280;28261;53.304;-6.284;2023-07-09T06:06:27;100916.41;;;21.18;57.15
42633;BME280;28261;53.304;-6.284;2023-07-09T06:08:30;100923.50;;;21.60;55.77
42633;BME280;28261;53.304;-6.284;2023-07-09T06:10:33;100904.94;;;21.49;55.79
42633;BME280;28261;53.304;-6.284;2023-07-09T06:12:37;100916.75;;;21.07;56.43
42633;BME280;28261;53.304;-6.284;2023-07-09T06:14:41;100913.59;;;20.60;57.75
42633;BME280;28261;53.304;-6.284;2023-07-09T06:16:45;100919.63;;;20.54;58.37
42633;BME280;28261;53.304;-6.284;2023-07-09T06:18:49;100913.84;;;20.84;57.58
42633;BME280;28261;53.304;-6.284;2023-07-09T06:20:54;100912.34;;;20.89;57.35
42633;BME280;28261;53.304;-6.284;2023-07-09T06:22:57;100910.66;;;21.05;57.21
42633;BME280;28261;53.304;-6.284;2023-07-09T06:25:02;100923.16;;;21.22;56.84
42633;BME280;28261;53.304;-6.284;2023-07-09T06:27:05;100898.03;;;21.46;56.37
42633;BME280;28261;53.304;-6.284;2023-07-09T06:29:08;100909.94;;;21.93;55.21
42633;BME280;28261;53.304;-6.284;2023-07-09T06:31:12;100916.34;;;22.80;52.00
42633;BME280;28261;53.304;-6.284;2023-07-09T06:33:17;100917.81;;;23.06;50.88
42633;BME280;28261;53.304;-6.284;2023-07-09T06:35:21;100919.44;;;22.69;51.71
42633;BME280;28261;53.304;-6.284;2023-07-09T06:37:24;100922.88;;;22.14;52.50
42633;BME280;28261;53.304;-6.284;2023-07-09T06:39:27;100918.44;;;21.66;53.47
42633;BME280;28261;53.304;-6.284;2023-07-09T06:41:31;100915.56;;;21.18;54.41
42633;BME280;28261;53.304;-6.284;2023-07-09T06:43:43;100922.25;;;20.72;54.95
42633;BME280;28261;53.304;-6.284;2023-07-09T06:45:51;100919.25;;;20.33;55.63
42633;BME280;28261;53.304;-6.284;2023-07-09T06:47:55;100920.13;;;20.07;56.64
42633;BME280;28261;53.304;-6.284;2023-07-09T06:49:58;100917.59;;;20.05;56.77
42633;BME280;28261;53.304;-6.284;2023-07-09T06:52:02;100912.81;;;20.34;56.29
42633;BME280;28261;53.304;-6.284;2023-07-09T06:54:06;100915.53;;;20.76;55.03
42633;BME280;28261;53.304;-6.284;2023-07-09T06:56:10;100909.31;;;21.01;54.88
42633;BME280;28261;53.304;-6.284;2023-07-09T06:58:14;100908.47;;;20.92;55.04
42633;BME280;28261;53.304;-6.284;2023-07-09T07:00:18;100914.88;;;20.91;55.53
42633;BME280;28261;53.304;-6.284;2023-07-09T07:02:21;100908.97;;;20.79;56.08
42633;BME280;28261;53.304;-6.284;2023-07-09T07:04:25;100908.31;;;21.10;55.94
42633;BME280;28261;53.304;-6.284;2023-07-09T07:06:29;100893.75;;;21.85;54.15
42633;BME280;28261;53.304;-6.284;2023-07-09T07:08:34;100897.47;;;22.32;53.13
42633;BME280;28261;53.304;-6.284;2023-07-09T07:10:38;100904.28;;;22.59;51.88
42633;BME280;28261;53.304;-6.284;2023-07-09T07:12:47;100903.56;;;22.65;52.00
42633;BME280;28261;53.304;-6.284;2023-07-09T07:14:51;100909.69;;;22.59;51.08
42633;BME280;28261;53.304;-6.284;2023-07-09T07:16:55;100906.75;;;22.46;51.63
42633;BME280;28261;53.304;-6.284;2023-07-09T07:18:59;100901.84;;;22.33;52.10
42633;BME280;28261;53.304;-6.284;2023-07-09T07:21:03;100897.47;;;22.32;52.58
42633;BME280;28261;53.304;-6.284;2023-07-09T07:23:07;100889.38;;;22.63;52.07
42633;BME280;28261;53.304;-6.284;2023-07-09T07:25:12;100880.91;;;23.21;50.53
42633;BME280;28261;53.304;-6.284;2023-07-09T07:27:15;100875.06;;;23.47;49.57
42633;BME280;28261;53.304;-6.284;2023-07-09T07:29:18;100877.94;;;23.31;49.85
42633;BME280;28261;53.304;-6.284;2023-07-09T07:31:21;100881.13;;;22.65;51.02
42633;BME280;28261;53.304;-6.284;2023-07-09T07:33:25;100887.66;;;22.00;52.45
42633;BME280;28261;53.304;-6.284;2023-07-09T07:35:28;100888.28;;;21.54;53.75
42633;BME280;28261;53.304;-6.284;2023-07-09T07:37:31;100891.81;;;21.13;55.28
42633;BME280;28261;53.304;-6.284;2023-07-09T07:39:35;100887.41;;;20.79;56.66
42633;BME280;28261;53.304;-6.284;2023-07-09T07:41:40;100903.13;;;20.49;58.48
42633;BME280;28261;53.304;-6.284;2023-07-09T07:43:43;100910.16;;;20.42;59.17
42633;BME280;28261;53.304;-6.284;2023-07-09T07:45:47;100911.81;;;20.26;59.67
42633;BME280;28261;53.304;-6.284;2023-07-09T07:47:51;100917.69;;;19.95;61.21
42633;BME280;28261;53.304;-6.284;2023-07-09T07:49:55;100905.94;;;19.70;62.28
42633;BME280;28261;53.304;-6.284;2023-07-09T07:51:58;100907.06;;;19.41;63.87
42633;BME280;28261;53.304;-6.284;2023-07-09T07:54:05;100898.03;;;19.06;65.44
42633;BME280;28261;53.304;-6.284;2023-07-09T07:56:10;100906.22;;;18.69;67.22
42633;BME280;28261;53.304;-6.284;2023-07-09T07:58:14;100905.50;;;18.49;69.31
42633;BME280;28261;53.304;-6.284;2023-07-09T08:00:18;100904.03;;;18.54;70.42
42633;BME280;28261;53.304;-6.284;2023-07-09T08:02:23;100905.91;;;18.72;70.95
42633;BME280;28261;53.304;-6.284;2023-07-09T08:04:27;100897.22;;;19.06;70.76
42633;BME280;28261;53.304;-6.284;2023-07-09T08:06:30;100897.91;;;19.52;70.73
42633;BME280;28261;53.304;-6.284;2023-07-09T08:08:34;100901.38;;;20.23;68.54
42633;BME280;28261;53.304;-6.284;2023-07-09T08:10:37;100911.06;;;20.59;66.52
42633;BME280;28261;53.304;-6.284;2023-07-09T08:12:40;100910.72;;;20.11;67.64
42633;BME280;28261;53.304;-6.284;2023-07-09T08:14:46;100908.34;;;19.55;70.10
42633;BME280;28261;53.304;-6.284;2023-07-09T08:16:49;100905.09;;;19.25;71.52
42633;BME280;28261;53.304;-6.284;2023-07-09T08:18:52;100904.94;;;19.27;72.46
42633;BME280;28261;53.304;-6.284;2023-07-09T08:20:58;100905.63;;;19.29;72.55
42633;BME280;28261;53.304;-6.284;2023-07-09T08:23:01;100904.88;;;19.01;73.65
42633;BME280;28261;53.304;-6.284;2023-07-09T08:25:06;100930.25;;;18.70;75.36
42633;BME280;28261;53.304;-6.284;2023-07-09T08:27:10;100926.72;;;18.42;76.50
42633;BME280;28261;53.304;-6.284;2023-07-09T08:29:13;100934.97;;;18.31;77.22
42633;BME280;28261;53.304;-6.284;2023-07-09T08:31:18;100939.25;;;18.23;77.68
42633;BME280;28261;53.304;-6.284;2023-07-09T08:33:21;100938.69;;;18.20;77.87
42633;BME280;28261;53.304;-6.284;2023-07-09T08:35:25;100935.28;;;18.27;76.85
42633;BME280;28261;53.304;-6.284;2023-07-09T08:37:37;100927.09;;;18.29;75.52
42633;BME280;28261;53.304;-6.284;2023-07-09T08:39:40;100921.06;;;18.17;75.09
42633;BME280;28261;53.304;-6.284;2023-07-09T08:41:46;100928.84;;;18.10;74.32
42633;BME280;28261;53.304;-6.284;2023-07-09T08:43:57;100923.78;;;18.07;74.42
42633;BME280;28261;53.304;-6.284;2023-07-09T08:46:07;100922.97;;;17.97;75.38
42633;BME280;28261;53.304;-6.284;2023-07-09T08:48:18;100925.38;;;17.81;76.53
42633;BME280;28261;53.304;-6.284;2023-07-09T08:50:32;100914.72;;;17.61;77.86
42633;BME280;28261;53.304;-6.284;2023-07-09T08:52:40;100919.69;;;17.27;79.95
42633;BME280;28261;53.304;-6.284;2023-07-09T08:54:44;100918.25;;;17.13;81.55
42633;BME280;28261;53.304;-6.284;2023-07-09T08:56:49;100934.63;;;17.00;82.54
42633;BME280;28261;53.304;-6.284;2023-07-09T08:58:54;100939.13;;;16.89;83.09
42633;BME280;28261;53.304;-6.284;2023-07-09T09:01:02;100928.22;;;16.81;84.30
42633;BME280;28261;53.304;-6.284;2023-07-09T09:03:11;100930.06;;;16.71;85.08
42633;BME280;28261;53.304;-6.284;2023-07-09T09:05:20;100933.69;;;16.70;87.25
42633;BME280;28261;53.304;-6.284;2023-07-09T09:07:34;100936.69;;;16.77;86.37
42633;BME280;28261;53.304;-6.284;2023-07-09T09:09:46;100933.03;;;16.87;86.38
42633;BME280;28261;53.304;-6.284;2023-07-09T09:12:02;100937.31;;;16.90;86.69
42633;BME280;28261;53.304;-6.284;2023-07-09T09:14:30;100940.63;;;16.82;87.16
42633;BME280;28261;53.304;-6.284;2023-07-09T09:16:38;100950.91;;;16.77;88.77
42633;BME280;28261;53.304;-6.284;2023-07-09T09:18:44;100941.06;;;16.87;89.03
42633;BME280;28261;53.304;-6.284;2023-07-09T09:20:55;100940.84;;;17.10;87.97
42633;BME280;28261;53.304;-6.284;2023-07-09T09:23:12;100941.28;;;17.25;87.26
42633;BME280;28261;53.304;-6.284;2023-07-09T09:25:23;100937.03;;;17.32;86.75
42633;BME280;28261;53.304;-6.284;2023-07-09T09:27:27;100927.28;;;17.31;87.32
42633;BME280;28261;53.304;-6.284;2023-07-09T09:29:31;100931.53;;;17.24;87.82
42633;BME280;28261;53.304;-6.284;2023-07-09T09:31:34;100934.91;;;17.16;88.38
42633;BME280;28261;53.304;-6.284;2023-07-09T09:33:41;100937.16;;;17.11;89.47
42633;BME280;28261;53.304;-6.284;2023-07-09T09:35:45;100925.31;;;17.14;89.54
42633;BME280;28261;53.304;-6.284;2023-07-09T09:37:54;100935.63;;;17.28;89.33
42633;BME280;28261;53.304;-6.284;2023-07-09T09:39:59;100936.31;;;17.40;89.38
42633;BME280;28261;53.304;-6.284;2023-07-09T09:42:18;100933.63;;;17.40;89.90
42633;BME280;28261;53.304;-6.284;2023-07-09T09:44:28;100933.50;;;17.32;89.96
42633;BME280;28261;53.304;-6.284;2023-07-09T09:46:33;100933.25;;;17.25;90.80
42633;BME280;28261;53.304;-6.284;2023-07-09T09:48:37;100933.94;;;17.17;90.77
42633;BME280;28261;53.304;-6.284;2023-07-09T09:50:41;100931.81;;;17.11;92.02
42633;BME280;28261;53.304;-6.284;2023-07-09T09:52:46;100932.66;;;17.12;91.89
42633;BME280;28261;53.304;-6.284;2023-07-09T09:54:54;100932.38;;;17.15;91.39
42633;BME280;28261;53.304;-6.284;2023-07-09T09:56:58;100932.22;;;17.16;91.68
42633;BME280;28261;53.304;-6.284;2023-07-09T09:59:02;100934.22;;;17.24;91.06
42633;BME280;28261;53.304;-6.284;2023-07-09T10:01:14;100929.41;;;17.37;90.81
42633;BME280;28261;53.304;-6.284;2023-07-09T10:03:18;100926.31;;;17.42;89.96
42633;BME280;28261;53.304;-6.284;2023-07-09T10:05:31;100930.25;;;17.38;90.59
42633;BME280;28261;53.304;-6.284;2023-07-09T10:07:59;100928.16;;;17.41;90.70
42633;BME280;28261;53.304;-6.284;2023-07-09T10:10:12;100929.94;;;17.51;90.54
42633;BME280;28261;53.304;-6.284;2023-07-09T10:12:35;100935.72;;;17.66;90.14
42633;BME280;28261;53.304;-6.284;2023-07-09T10:14:47;100928.38;;;17.68;89.72
42633;BME280;28261;53.304;-6.284;2023-07-09T10:16:59;100937.44;;;17.47;91.53
42633;BME280;28261;53.304;-6.284;2023-07-09T10:19:14;100923.75;;;17.50;92.40
42633;BME280;28261;53.304;-6.284;2023-07-09T10:21:25;100920.19;;;17.69;92.01
42633;BME280;28261;53.304;-6.284;2023-07-09T10:23:38;100924.41;;;17.72;91.61
42633;BME280;28261;53.304;-6.284;2023-07-09T10:25:52;100918.78;;;17.65;92.46
42633;BME280;28261;53.304;-6.284;2023-07-09T10:30:38;100923.72;;;17.70;92.63
42633;BME280;28261;53.304;-6.284;2023-07-09T10:32:57;100915.63;;;17.80;92.41
42633;BME280;28261;53.304;-6.284;2023-07-09T10:35:09;100901.81;;;17.84;92.08
42633;BME280;28261;53.304;-6.284;2023-07-09T10:37:26;100892.47;;;17.88;91.52
42633;BME280;28261;53.304;-6.284;2023-07-09T10:39:38;100891.91;;;18.04;92.09
42633;BME280;28261;53.304;-6.284;2023-07-09T10:41:47;100884.78;;;18.13;89.74
42633;BME280;28261;53.304;-6.284;2023-07-09T10:43:57;100886.63;;;18.13;89.89
42633;BME280;28261;53.304;-6.284;2023-07-09T10:46:05;100890.66;;;18.26;88.54
42633;BME280;28261;53.304;-6.284;2023-07-09T10:48:16;100873.19;;;18.40;87.47
42633;BME280;28261;53.304;-6.284;2023-07-09T10:50:26;100869.00;;;18.56;86.21
42633;BME280;28261;53.304;-6.284;2023-07-09T10:52:33;100875.63;;;18.80;85.52